FW8814 Weather Reports


time (UTC)temp
F
wind
direction
speed
knots
gust
knots
rain 1hr
in
rain 24hr
in
rain mn
in
humidity
%
barometer
mb
20210723165018 85 190 4.3 7.8 0.00 0.00 0.00 70 1019.4
20210723164020 85 200 4.3 7.8 0.00 0.00 0.00 70 1019.6
20210723163021 85 202 5.2 10.4 0.00 0.00 0.00 71 1019.7
20210723162017 85 177 5.2 9.6 0.00 0.00 0.00 72 1019.7
20210723161017 84 196 4.3 9.6 0.00 0.00 0.00 74 1019.7
20210723160018 84 205 4.3 7.8 0.00 0.00 0.00 74 1019.8
20210723155017 83 197 4.3 7.8 0.00 0.00 0.00 76 1019.9
20210723154018 83 199 4.3 7.8 0.00 0.00 0.00 76 1019.9
20210723153018 84 185 5.2 8.7 0.00 0.00 0.00 75 1019.9
20210723152020 83 187 6.1 12.2 0.00 0.00 0.00 75 1020.0
20210723151017 83 189 4.3 8.7 0.00 0.00 0.00 78 1020.0
20210723150020 82 215 3.5 7.8 0.00 0.00 0.00 79 1020.1
20210723145019 82 209 4.3 8.7 0.00 0.00 0.00 80 1020.1
20210723144017 82 206 3.5 7.0 0.00 0.00 0.00 80 1020.1
20210723143016 81 183 3.5 8.7 0.00 0.00 0.00 81 1020.1
20210723142020 80 188 4.3 7.0 0.00 0.00 0.00 83 1020.1
20210723141020 80 187 4.3 8.7 0.00 0.00 0.00 83 1020.0
20210723140018 79 177 4.3 7.8 0.00 0.00 0.00 83 1020.0
20210723135017 79 177 3.5 7.0 0.00 0.00 0.00 84 1020.0
20210723134017 79 178 3.5 6.1 0.00 0.00 0.00 84 1020.0
20210723133018 79 171 2.6 5.2 0.00 0.00 0.00 84 1020.0
20210723132019 79 173 1.7 5.2 0.00 0.00 0.00 84 1019.9
20210723131018 78 163 2.6 7.0 0.00 0.00 0.00 85 1019.9
20210723130018 78 170 2.6 6.1 0.00 0.00 0.00 85 1019.9
20210723125019 78 167 2.6 5.2 0.00 0.00 0.00 85 1019.9
20210723124018 77 182 2.6 6.1 0.00 0.00 0.00 86 1019.9
20210723123018 77 174 2.6 6.1 0.00 0.00 0.00 86 1019.9
20210723122019 76 174 2.6 5.2 0.00 0.00 0.00 87 1019.9
20210723121021 76 188 1.7 5.2 0.00 0.00 0.00 88 1019.8
20210723120020 75 184 1.7 4.3 0.00 0.00 0.00 90 1019.7
20210723115016 75 183 0.9 3.5 0.00 0.00 0.00 90 1019.6
20210723114020 75 182 0.9 1.7 0.00 0.00 0.00 89 1019.6
20210723113019 75 185 0.9 1.7 0.00 0.00 0.00 89 1019.5
20210723112017 75 207 0.9 4.3 0.00 0.00 0.00 89 1019.3
20210723111017 75 210 1.7 4.3 0.00 0.00 0.00 88 1019.4
20210723110021 75 204 1.7 4.3 0.00 0.00 0.00 88 1019.3
20210723105017 75 192 1.7 3.5 0.00 0.00 0.00 89 1019.3
20210723104017 75 197 0.9 2.6 0.00 0.00 0.00 89 1019.4
20210723103017 75 213 0.9 3.5 0.00 0.00 0.00 89 1019.4
20210723102020 76 198 0.9 1.7 0.00 0.00 0.00 88 1019.4
20210723101019 76 206 0.9 3.5 0.00 0.00 0.00 88 1019.3
20210723100018 76 192 0.9 1.7 0.00 0.00 0.00 88 1019.2
20210723095018 76 193 0.9 1.7 0.00 0.00 0.00 87 1019.2
20210723094020 77 186 1.7 4.3 0.00 0.00 0.00 87 1019.2
20210723093019 77 188 1.7 3.5 0.00 0.00 0.00 87 1019.2
20210723092019 77 182 1.7 3.5 0.00 0.00 0.00 87 1019.2
20210723091019 77 206 1.7 4.3 0.00 0.00 0.00 86 1019.2
20210723090019 77 191 1.7 4.3 0.00 0.00 0.00 86 1019.1
20210723085016 77 185 2.6 5.2 0.00 0.00 0.00 86 1019.1
20210723084019 77 189 1.7 4.3 0.00 0.00 0.00 85 1019.1
20210723083020 78 194 2.6 5.2 0.00 0.00 0.00 84 1019.0
20210723082018 78 175 1.7 5.2 0.00 0.00 0.00 84 1019.1
20210723081021 78 188 1.7 3.5 0.00 0.00 0.00 84 1019.1
20210723080020 78 185 1.7 3.5 0.00 0.00 0.00 83 1019.1
20210723075021 78 197 2.6 5.2 0.00 0.00 0.00 83 1019.1
20210723074017 79 195 2.6 5.2 0.00 0.00 0.00 82 1019.1
20210723073017 79 193 3.5 7.0 0.00 0.00 0.00 81 1019.0
20210723072018 79 189 3.5 7.0 0.00 0.00 0.00 81 1018.9
20210723071018 79 190 3.5 5.2 0.00 0.00 0.00 81 1018.9
20210723070018 80 194 3.5 6.1 0.00 0.00 0.00 81 1018.8
20210723065018 80 178 2.6 7.0 0.00 0.00 0.00 81 1018.8
20210723064018 80 181 2.6 5.2 0.00 0.00 0.00 81 1018.7
20210723063019 80 175 2.6 7.8 0.00 0.00 0.00 81 1018.6
20210723062017 80 176 2.6 4.3 0.00 0.00 0.00 80 1018.7
20210723061021 81 172 2.6 5.2 0.00 0.00 0.00 80 1018.7
20210723060021 81 179 2.6 5.2 0.00 0.00 0.00 79 1018.6
20210723055021 81 182 2.6 6.1 0.00 0.00 0.00 78 1018.6
20210723054017 82 183 3.5 8.7 0.00 0.00 0.00 77 1018.5
20210723053019 82 181 4.3 7.8 0.00 0.00 0.00 76 1018.5
20210723052020 82 182 2.6 6.1 0.00 0.00 0.00 76 1018.5
20210723051017 82 172 3.5 7.0 0.00 0.00 0.00 77 1018.5
20210723050017 82 166 2.6 4.3 0.00 0.00 0.00 77 1018.4
20210723045018 82 162 1.7 3.5 0.00 0.00 0.00 76 1018.3
20210723044018 82 161 2.6 4.3 0.00 0.00 0.00 76 1018.2
20210723043019 83 158 2.6 3.5 0.00 0.00 0.00 76 1018.1
20210723042020 83 161 2.6 5.2 0.00 0.00 0.00 75 1018.2
20210723041018 83 167 2.6 5.2 0.00 0.00 0.00 75 1018.2
20210723040018 83 163 1.7 4.3 0.00 0.00 0.00 75 1018.3
20210723035018 83 163 2.6 5.2 0.00 0.00 0.00 75 1018.3
20210723034019 83 156 1.7 3.5 0.00 0.00 0.00 77 1018.2
20210723033019 83 156 2.6 4.3 0.00 0.00 0.00 77 1018.2
20210723032020 83 151 2.6 4.3 0.00 0.00 0.00 76 1018.1
20210723031019 84 153 2.6 3.5 0.00 0.00 0.00 75 1018.1
20210723030019 84 160 3.5 6.1 0.00 0.00 0.00 74 1018.0
20210723025021 84 160 3.5 6.1 0.00 0.00 0.00 74 1018.0
20210723024017 84 155 3.5 5.2 0.00 0.00 0.00 73 1018.0
20210723023017 85 152 3.5 5.2 0.00 0.00 0.00 73 1017.9
20210723022020 85 159 2.6 5.2 0.00 0.00 0.00 72 1017.8
20210723021017 85 162 2.6 4.3 0.00 0.00 0.00 72 1017.7
20210723020017 85 157 2.6 5.2 0.00 0.00 0.00 71 1017.5
20210723015018 85 147 1.7 5.2 0.00 0.00 0.00 72 1017.4
20210723014021 85 147 1.7 3.5 0.00 0.00 0.00 71 1017.4
20210723013018 86 151 2.6 4.3 0.00 0.00 0.00 69 1017.4
20210723012018 86 154 3.5 5.2 0.00 0.00 0.00 67 1017.4
20210723011019 87 157 2.6 4.3 0.00 0.00 0.00 64 1017.3
20210723010019 87 168 3.5 7.0 0.00 0.00 0.00 62 1017.3
20210723005019 87 152 4.3 7.8 0.00 0.00 0.00 66 1017.2
20210723004019 87 150 3.5 5.2 0.00 0.00 0.00 67 1017.0
20210723003019 88 153 3.5 6.1 0.00 0.00 0.00 65 1016.7
20210723002020 88 152 4.3 7.8 0.00 0.00 0.00 64 1016.7
20210723001017 88 148 4.3 7.8 0.00 0.00 0.00 64 1016.7
20210723000019 89 156 4.3 7.0 0.00 0.00 0.00 63 1016.6
20210722235020 89 158 3.5 6.1 0.00 0.00 0.00 62 1016.6
20210722234020 89 170 3.5 5.2 0.00 0.00 0.00 59 1016.6
20210722233017 89 150 2.6 5.2 0.00 0.00 0.00 59 1016.7
20210722232018 89 142 3.5 7.8 0.00 0.00 0.00 59 1016.7
20210722231021 89 169 3.5 6.1 0.00 0.00 0.00 60 1016.6
20210722230017 89 143 3.5 6.1 0.00 0.00 0.00 59 1016.6
20210722225019 89 155 3.5 7.8 0.00 0.00 0.00 59 1016.7
20210722224018 89 149 2.6 4.3 0.00 0.00 0.00 60 1016.7
20210722223019 88 155 3.5 6.1 0.00 0.00 0.00 60 1016.8
20210722222018 88 140 4.3 6.1 0.00 0.00 0.00 59 1016.9
20210722221019 88 140 4.3 7.8 0.00 0.00 0.00 60 1016.9
20210722220018 89 132 4.3 7.8 0.00 0.00 0.00 61 1017.0
20210722215019 88 165 2.6 6.1 0.00 0.00 0.00 62 1017.2
20210722214020 87 148 3.5 6.1 0.00 0.00 0.00 61 1017.2
20210722213019 87 134 3.5 7.8 0.00 0.00 0.00 62 1017.4
20210722212021 87 150 4.3 6.1 0.00 0.00 0.00 63 1017.5
20210722211021 88 134 3.5 5.2 0.00 0.00 0.00 62 1017.5
20210722210016 88 135 4.3 9.6 0.00 0.00 0.00 61 1017.6
20210722205020 88 127 3.5 7.0 0.00 0.00 0.00 62 1017.7
20210722204021 88 139 3.5 7.0 0.00 0.00 0.00 61 1017.8
20210722203017 87 136 4.3 7.8 0.00 0.00 0.00 63 1017.9
20210722202018 87 141 4.3 7.0 0.00 0.00 0.00 62 1018.0
20210722201018 87 152 3.5 6.1 0.00 0.00 0.00 64 1018.1
20210722200022 87 137 3.5 7.0 0.00 0.00 0.00 63 1018.2
20210722195019 87 117 3.5 7.0 0.00 0.00 0.00 63 1018.3
20210722194018 87 113 4.3 7.8 0.00 0.00 0.00 64 1018.4
20210722193020 87 158 4.3 7.0 0.00 0.00 0.00 64 1018.5
20210722192019 87 143 4.3 7.8 0.00 0.00 0.00 63 1018.6
20210722191019 87 147 3.5 7.0 0.00 0.00 0.00 63 1018.8
20210722190018 87 152 4.3 7.8 0.00 0.00 0.00 62 1018.8
20210722185019 87 139 4.3 7.8 0.00 0.00 0.00 62 1018.9
20210722184019 86 151 4.3 7.0 0.00 0.00 0.00 64 1019.0
20210722183016 86 157 4.3 7.0 0.00 0.00 0.00 63 1019.1
20210722182019 86 135 3.5 6.1 0.00 0.00 0.00 64 1019.2
20210722181021 86 156 4.3 7.0 0.00 0.00 0.00 66 1019.2
20210722180018 85 157 4.3 7.0 0.00 0.00 0.00 66 1019.4
20210722175018 85 158 4.3 7.0 0.00 0.00 0.00 67 1019.5
20210722174017 85 162 3.5 7.0 0.00 0.00 0.00 69 1019.6
20210722173018 85 153 4.3 7.8 0.00 0.00 0.00 69 1019.7
20210722172019 85 160 4.3 8.7 0.00 0.00 0.00 69 1019.8
20210722171020 84 143 4.3 7.0 0.00 0.00 0.00 70 1019.9
20210722170018 84 154 3.5 6.1 0.00 0.00 0.00 71 1019.9